createdAt,value
2023-12-03T00:00:58.408Z,35.53
2023-12-03T00:03:26.432Z,34.60
2023-12-03T00:05:54.187Z,34.95
2023-12-03T00:08:22.428Z,33.10
2023-12-03T00:10:51.732Z,30.80
2023-12-03T00:13:24.244Z,30.98
2023-12-03T00:15:51.921Z,31.77
2023-12-03T00:18:19.729Z,33.42
2023-12-03T00:20:47.737Z,33.80
2023-12-03T00:23:17.837Z,34.03
2023-12-03T00:25:45.781Z,34.03
2023-12-03T00:28:13.768Z,37.85
2023-12-03T00:30:41.276Z,32.80
2023-12-03T00:33:09.147Z,35.75
2023-12-03T00:35:37.385Z,35.10
2023-12-03T00:38:04.961Z,33.85
2023-12-03T00:40:32.392Z,35.53
2023-12-03T00:43:05.399Z,34.60
2023-12-03T00:45:32.915Z,37.40
2023-12-03T00:48:01.037Z,35.08
2023-12-03T00:50:29.009Z,36.42
2023-12-03T00:52:57.331Z,35.80
2023-12-03T00:55:25.016Z,34.55
2023-12-03T00:57:52.987Z,36.15
2023-12-03T01:00:20.718Z,35.85
2023-12-03T01:02:48.687Z,35.10
2023-12-03T01:05:16.421Z,37.05
2023-12-03T01:07:44.496Z,33.47
2023-12-03T01:10:12.253Z,35.65
2023-12-03T01:12:43.943Z,35.38
2023-12-03T01:15:11.435Z,35.90
2023-12-03T01:17:40.114Z,36.67
2023-12-03T01:20:08.607Z,35.55
2023-12-03T01:22:36.205Z,35.80
2023-12-03T01:25:03.755Z,34.17
2023-12-03T01:27:31.795Z,34.70
2023-12-03T01:29:59.358Z,35.45
2023-12-03T01:32:26.887Z,35.05
2023-12-03T01:34:54.985Z,34.67
2023-12-03T01:37:23.172Z,35.33
2023-12-03T01:39:51.368Z,35.88
2023-12-03T01:42:19.223Z,35.40
2023-12-03T01:44:47.047Z,34.40
2023-12-03T01:47:16.046Z,33.33
2023-12-03T01:49:47.307Z,30.73
2023-12-03T01:52:15.953Z,32.65
2023-12-03T01:54:47.124Z,32.70
2023-12-03T01:57:15.174Z,32.72
2023-12-03T01:59:43.198Z,33.22
2023-12-03T02:02:10.740Z,32.50
2023-12-03T02:04:38.690Z,34.65
2023-12-03T02:07:07.941Z,33.38
2023-12-03T02:09:35.665Z,33.05
2023-12-03T02:12:04.956Z,34.63
2023-12-03T02:14:34.948Z,35.15
2023-12-03T02:17:03.116Z,31.55
2023-12-03T02:19:30.703Z,35.08
2023-12-03T02:21:58.146Z,34.65
2023-12-03T02:24:25.903Z,33.90
2023-12-03T02:26:53.491Z,36.38
2023-12-03T02:29:21.004Z,34.45
2023-12-03T02:31:49.143Z,34.05
2023-12-03T02:34:16.734Z,33.25
2023-12-03T02:36:44.488Z,35.10
2023-12-03T02:39:12.219Z,36.08
2023-12-03T02:41:40.206Z,34.83
2023-12-03T02:44:08.233Z,35.90
2023-12-03T02:46:39.233Z,35.72
2023-12-03T02:49:07.541Z,34.70
2023-12-03T02:51:35.277Z,34.45
2023-12-03T02:54:02.966Z,35.75
2023-12-03T02:56:30.652Z,36.25
2023-12-03T02:58:58.256Z,34.85
2023-12-03T03:01:26.130Z,33.60
2023-12-03T03:03:54.226Z,34.75
2023-12-03T03:06:21.821Z,33.97
2023-12-03T03:08:51.189Z,33.20
2023-12-03T03:11:18.589Z,34.78
2023-12-03T03:13:46.381Z,33.20
2023-12-03T03:16:14.492Z,33.00
2023-12-03T03:18:42.303Z,32.00
2023-12-03T03:21:10.165Z,32.53
2023-12-03T03:23:39.031Z,32.60
2023-12-03T03:26:07.032Z,32.05
2023-12-03T03:28:34.955Z,30.42
2023-12-03T03:31:07.380Z,30.98
2023-12-03T03:33:35.155Z,30.88
2023-12-03T03:36:03.538Z,29.90
2023-12-03T03:38:31.705Z,29.98
2023-12-03T03:40:59.667Z,29.15
2023-12-03T03:43:27.598Z,29.55
2023-12-03T03:45:55.391Z,30.80
2023-12-03T03:48:23.348Z,28.67
2023-12-03T03:50:52.210Z,29.25
2023-12-03T03:53:20.065Z,29.35
2023-12-03T03:55:47.782Z,27.27
2023-12-03T03:58:17.246Z,29.20
2023-12-03T04:00:45.007Z,28.50
2023-12-03T04:03:12.493Z,27.52
2023-12-03T04:05:40.158Z,27.70
2023-12-03T04:08:08.278Z,26.70
2023-12-03T04:10:35.798Z,27.05
2023-12-03T04:13:03.362Z,29.17
2023-12-03T04:15:31.270Z,27.73
2023-12-03T04:18:01.310Z,27.23
2023-12-03T04:20:29.423Z,27.92
2023-12-03T04:22:57.190Z,28.13
2023-12-03T04:25:25.364Z,28.50
2023-12-03T04:27:52.856Z,26.77
2023-12-03T04:30:20.487Z,27.55
2023-12-03T04:32:48.052Z,27.75
2023-12-03T04:35:16.008Z,27.92
2023-12-03T04:37:43.854Z,25.17
2023-12-03T04:40:13.328Z,26.42
2023-12-03T04:42:41.683Z,27.77
2023-12-03T04:45:09.757Z,25.27
2023-12-03T04:47:37.338Z,26.75
2023-12-03T04:50:07.054Z,27.05
2023-12-03T04:52:35.231Z,25.33
2023-12-03T04:55:03.087Z,25.92
2023-12-03T04:57:30.604Z,27.45
2023-12-03T04:59:58.471Z,23.55
2023-12-03T05:02:26.418Z,25.02
2023-12-03T05:04:54.310Z,24.95
2023-12-03T05:07:22.356Z,24.42
2023-12-03T05:09:50.432Z,26.00
2023-12-03T05:12:23.990Z,24.33
2023-12-03T05:14:51.852Z,25.88
2023-12-03T05:17:20.083Z,25.48
2023-12-03T05:19:47.894Z,25.95
2023-12-03T05:22:22.184Z,24.42
2023-12-03T05:24:50.692Z,25.08
2023-12-03T05:27:18.426Z,25.85
2023-12-03T05:29:46.810Z,24.88
2023-12-03T05:32:19.257Z,26.63
2023-12-03T05:34:47.274Z,26.02
2023-12-03T05:37:20.274Z,24.67
2023-12-03T05:39:47.968Z,24.33
2023-12-03T05:42:15.673Z,25.00
2023-12-03T05:44:46.745Z,25.52
2023-12-03T05:47:14.673Z,24.50
2023-12-03T05:49:42.750Z,26.25
2023-12-03T05:52:10.605Z,26.45
2023-12-03T05:54:38.543Z,25.35
2023-12-03T05:57:06.220Z,24.88
2023-12-03T05:59:38.145Z,27.08
2023-12-03T06:02:06.959Z,26.38
2023-12-03T06:04:35.241Z,25.88
2023-12-03T06:07:02.874Z,25.38
2023-12-03T06:09:30.854Z,24.67
2023-12-03T06:11:58.930Z,24.58
2023-12-03T06:14:26.548Z,26.80
2023-12-03T06:16:54.138Z,27.05
2023-12-03T06:19:23.330Z,26.08
2023-12-03T06:21:51.061Z,27.50
2023-12-03T06:24:18.838Z,27.10
2023-12-03T06:26:46.373Z,26.67
2023-12-03T06:29:13.865Z,26.98
2023-12-03T06:31:41.448Z,27.05
2023-12-03T06:34:09.503Z,27.63
2023-12-03T06:36:37.013Z,27.60
2023-12-03T06:39:05.663Z,26.52
2023-12-03T06:41:33.097Z,26.33
2023-12-03T06:44:01.160Z,27.92
2023-12-03T06:46:28.775Z,28.40
2023-12-03T06:48:57.172Z,27.85
2023-12-03T06:51:24.746Z,27.92
2023-12-03T06:53:52.286Z,26.98
2023-12-03T06:56:21.765Z,26.45
2023-12-03T06:58:50.130Z,28.00
2023-12-03T07:01:19.508Z,28.35
2023-12-03T07:03:47.107Z,26.60
2023-12-03T07:06:15.604Z,28.20
2023-12-03T07:08:44.016Z,26.67
2023-12-03T07:11:12.901Z,25.30
2023-12-03T07:13:40.597Z,26.90
2023-12-03T07:16:10.806Z,26.85
2023-12-03T07:21:06.377Z,25.35
2023-12-03T07:23:34.213Z,25.85
2023-12-03T07:26:02.606Z,25.63
2023-12-03T07:28:30.430Z,27.15
2023-12-03T07:30:58.429Z,25.83
2023-12-03T07:33:26.746Z,26.20
2023-12-03T07:35:54.833Z,24.80
2023-12-03T07:38:22.824Z,26.02
2023-12-03T07:40:53.159Z,26.08
2023-12-03T07:45:48.386Z,24.48
2023-12-03T07:48:16.227Z,25.05
2023-12-03T07:50:43.882Z,25.80
2023-12-03T07:53:12.441Z,25.08
2023-12-03T07:55:44.902Z,26.45
2023-12-03T07:58:13.096Z,25.70
2023-12-03T08:00:41.192Z,25.55
2023-12-03T08:03:09.625Z,25.60
2023-12-03T08:05:37.553Z,25.33
2023-12-03T08:08:05.733Z,25.42
2023-12-03T08:10:33.280Z,25.48
2023-12-03T08:13:01.095Z,24.05
2023-12-03T08:15:29.056Z,25.85
2023-12-03T08:18:00.285Z,25.30
2023-12-03T08:20:28.325Z,25.58
2023-12-03T08:22:55.881Z,24.95
2023-12-03T08:25:23.486Z,26.65
2023-12-03T08:27:52.923Z,25.80
2023-12-03T08:30:26.971Z,25.33
2023-12-03T08:32:54.498Z,25.05
2023-12-03T08:35:22.524Z,25.20
2023-12-03T08:37:50.176Z,26.15
2023-12-03T08:40:17.581Z,25.50
2023-12-03T08:42:45.950Z,26.33
2023-12-03T08:45:14.063Z,26.42
2023-12-03T08:47:42.018Z,24.70
2023-12-03T08:50:09.876Z,25.58
2023-12-03T08:52:37.713Z,24.38
2023-12-03T08:55:11.318Z,26.70
2023-12-03T08:57:40.949Z,23.50
2023-12-03T09:00:11.533Z,25.48
2023-12-03T09:05:07.069Z,24.23
2023-12-03T09:07:35.035Z,25.75
2023-12-03T09:10:02.716Z,25.33
2023-12-03T09:12:30.608Z,24.08
2023-12-03T09:14:58.496Z,24.88
2023-12-03T09:17:28.140Z,24.98
2023-12-03T09:19:55.830Z,23.23
2023-12-03T09:22:23.445Z,22.75
2023-12-03T09:24:51.494Z,22.65
2023-12-03T09:27:19.992Z,24.85
2023-12-03T09:29:48.059Z,23.40
2023-12-03T09:32:16.054Z,23.52
2023-12-03T09:34:43.508Z,23.65
2023-12-03T09:37:11.533Z,23.80
2023-12-03T09:39:40.942Z,22.58
2023-12-03T09:42:10.195Z,23.05
2023-12-03T09:44:41.066Z,23.73
2023-12-03T09:47:13.637Z,23.20
2023-12-03T09:49:43.835Z,21.58
2023-12-03T09:52:12.811Z,20.70
2023-12-03T09:54:41.388Z,22.55
2023-12-03T09:57:09.896Z,22.08
2023-12-03T09:59:39.506Z,20.00
2023-12-03T10:02:12.138Z,20.33
2023-12-03T10:04:40.120Z,20.17
2023-12-03T10:07:09.104Z,20.77
2023-12-03T10:09:37.342Z,20.73
2023-12-03T10:12:07.665Z,19.30
2023-12-03T10:14:35.938Z,19.70
2023-12-03T10:17:03.436Z,19.13
2023-12-03T10:19:31.162Z,20.17
2023-12-03T10:22:00.587Z,20.45
2023-12-03T10:24:28.499Z,18.42
2023-12-03T10:27:06.015Z,19.45
2023-12-03T10:29:33.886Z,17.98
2023-12-03T10:32:03.912Z,18.67
2023-12-03T10:34:32.210Z,18.23
2023-12-03T10:37:02.132Z,18.35
2023-12-03T10:39:32.103Z,18.33
2023-12-03T10:41:59.726Z,18.40
2023-12-03T10:44:29.325Z,17.50
2023-12-03T10:47:00.495Z,18.30
2023-12-03T10:49:29.046Z,18.77
2023-12-03T10:51:57.371Z,18.13
2023-12-03T10:54:26.318Z,17.23
2023-12-03T10:56:56.417Z,17.08
2023-12-03T10:59:25.934Z,17.95
2023-12-03T11:01:56.120Z,16.88
2023-12-03T11:04:33.032Z,17.25
2023-12-03T11:07:00.942Z,16.50
2023-12-03T11:09:29.565Z,16.65
2023-12-03T11:11:58.017Z,15.98
2023-12-03T11:14:27.152Z,16.30
2023-12-03T11:17:17.023Z,15.45
2023-12-03T11:19:55.068Z,15.77
2023-12-03T11:22:26.657Z,16.45
2023-12-03T11:25:08.959Z,15.60
2023-12-03T11:27:41.688Z,15.80
2023-12-03T11:30:09.824Z,16.20
2023-12-03T11:32:42.935Z,16.88
2023-12-03T11:35:17.637Z,16.13
2023-12-03T11:37:45.411Z,16.55
2023-12-03T11:40:34.346Z,16.75
2023-12-03T11:43:02.993Z,15.90
2023-12-03T11:45:31.345Z,15.65
2023-12-03T11:48:09.059Z,17.25
2023-12-03T11:50:39.036Z,15.88
2023-12-03T11:53:07.596Z,16.48
2023-12-03T11:55:37.570Z,16.05
2023-12-03T11:58:05.893Z,15.68
2023-12-03T12:00:39.654Z,15.43
2023-12-03T12:03:08.167Z,15.88
2023-12-03T12:05:44.165Z,15.88
2023-12-03T12:08:11.954Z,16.90
2023-12-03T12:10:39.705Z,15.95
2023-12-03T12:13:07.959Z,16.42
2023-12-03T12:15:35.485Z,16.85
2023-12-03T12:18:04.749Z,16.90
2023-12-03T12:20:33.699Z,15.88
2023-12-03T12:23:01.671Z,16.33
2023-12-03T12:25:29.869Z,16.05
2023-12-03T12:28:06.621Z,16.63
2023-12-03T12:30:36.331Z,16.58
2023-12-03T12:33:10.616Z,17.55
2023-12-03T12:35:39.065Z,16.83
2023-12-03T12:38:07.741Z,17.83
2023-12-03T12:40:40.824Z,17.20
2023-12-03T12:43:12.767Z,17.60
2023-12-03T12:45:41.211Z,15.55
2023-12-03T12:48:25.865Z,17.13
2023-12-03T12:50:54.940Z,16.75
2023-12-03T12:53:51.209Z,17.65
2023-12-03T12:56:18.931Z,17.35
2023-12-03T12:58:46.621Z,16.63
2023-12-03T13:01:14.160Z,17.23
2023-12-03T13:03:41.817Z,17.15
2023-12-03T13:06:10.524Z,16.60
2023-12-03T13:08:43.067Z,16.95
2023-12-03T13:11:10.669Z,16.55
2023-12-03T13:13:38.240Z,16.58
2023-12-03T13:16:07.472Z,14.93
2023-12-03T13:18:37.865Z,13.82
2023-12-03T13:21:05.562Z,13.15
2023-12-03T13:23:34.993Z,13.90
2023-12-03T13:26:02.553Z,12.93
2023-12-03T13:28:30.215Z,13.43
2023-12-03T13:30:57.712Z,12.73
2023-12-03T13:33:25.564Z,13.70
2023-12-03T13:35:54.524Z,14.15
2023-12-03T13:38:22.222Z,13.60
2023-12-03T13:40:50.487Z,13.38
2023-12-03T13:43:18.168Z,14.25
2023-12-03T13:45:46.261Z,15.15
2023-12-03T13:48:17.820Z,14.73
2023-12-03T13:50:45.807Z,14.68
2023-12-03T13:53:16.115Z,14.52
2023-12-03T13:55:44.169Z,14.82
2023-12-03T13:58:12.330Z,15.18
2023-12-03T14:00:40.435Z,14.75
2023-12-03T14:03:09.157Z,15.63
2023-12-03T14:05:37.546Z,15.60
2023-12-03T14:08:15.318Z,15.18
2023-12-03T14:10:43.670Z,15.45
2023-12-03T14:13:11.182Z,16.83
2023-12-03T14:15:38.839Z,15.07
2023-12-03T14:18:06.626Z,15.10
2023-12-03T14:20:34.693Z,15.70
2023-12-03T14:23:02.475Z,14.70
2023-12-03T14:25:30.275Z,14.43
2023-12-03T14:28:07.510Z,14.45
2023-12-03T14:30:35.653Z,15.38
2023-12-03T14:33:08.147Z,15.75
2023-12-03T14:35:36.486Z,15.35
2023-12-03T14:38:04.618Z,15.23
2023-12-03T14:40:32.488Z,15.13
2023-12-03T14:43:00.482Z,14.82
2023-12-03T14:45:29.033Z,14.55
2023-12-03T14:47:57.679Z,15.38
2023-12-03T14:50:25.838Z,14.77
2023-12-03T14:52:53.715Z,15.18
2023-12-03T14:55:21.636Z,13.98
2023-12-03T14:57:51.858Z,15.40
2023-12-03T15:00:19.992Z,14.18
2023-12-03T15:02:48.312Z,14.88
2023-12-03T15:05:16.372Z,14.07
2023-12-03T15:07:44.645Z,15.15
2023-12-03T15:10:12.807Z,13.73
2023-12-03T15:12:45.188Z,14.98
2023-12-03T15:15:20.509Z,14.23
2023-12-03T15:17:48.414Z,14.50
2023-12-03T15:20:17.054Z,14.82
2023-12-03T15:22:45.819Z,14.20
2023-12-03T15:25:16.922Z,13.82
2023-12-03T15:27:46.280Z,13.63
2023-12-03T15:30:15.411Z,13.23
2023-12-03T15:32:43.687Z,13.43
2023-12-03T15:35:13.700Z,13.68
2023-12-03T15:37:41.846Z,13.43
2023-12-03T15:40:09.833Z,12.88
2023-12-03T15:42:38.788Z,12.15
2023-12-03T15:45:12.353Z,13.52
2023-12-03T15:47:40.435Z,13.52
2023-12-03T15:50:08.642Z,12.25
2023-12-03T15:52:36.274Z,12.77
2023-12-03T15:55:12.428Z,11.95
2023-12-03T15:57:47.092Z,12.00
2023-12-03T16:00:14.895Z,12.30
2023-12-03T16:02:46.223Z,12.35
2023-12-03T16:05:14.007Z,11.90
2023-12-03T16:07:44.096Z,12.15
2023-12-03T16:10:15.696Z,11.88
2023-12-03T16:12:43.648Z,12.60
2023-12-03T16:15:11.719Z,12.23
2023-12-03T16:17:40.460Z,12.93
2023-12-03T16:20:08.965Z,12.65
2023-12-03T16:22:36.567Z,12.32
2023-12-03T16:25:04.665Z,12.85
2023-12-03T16:27:32.825Z,12.82
2023-12-03T16:30:00.657Z,12.10
2023-12-03T16:32:28.251Z,11.50
2023-12-03T16:34:57.182Z,12.65
2023-12-03T16:37:25.136Z,11.57
2023-12-03T16:39:53.120Z,12.63
2023-12-03T16:42:21.034Z,11.98
2023-12-03T16:47:42.966Z,11.05
2023-12-03T16:50:12.371Z,11.73
2023-12-03T16:52:39.936Z,11.75
2023-12-03T16:55:07.976Z,13.18
2023-12-03T16:57:36.268Z,12.23
2023-12-03T17:00:05.544Z,13.13
2023-12-03T17:02:33.546Z,12.82
2023-12-03T17:05:02.336Z,13.32
2023-12-03T17:07:30.122Z,13.48
2023-12-03T17:09:59.046Z,13.63
2023-12-03T17:12:27.894Z,13.90
2023-12-03T17:14:55.652Z,13.50
2023-12-03T17:17:23.357Z,13.85
2023-12-03T17:19:51.415Z,13.50
2023-12-03T17:22:20.785Z,14.63
2023-12-03T17:24:48.476Z,14.70
2023-12-03T17:27:16.132Z,13.98
2023-12-03T17:29:43.793Z,13.32
2023-12-03T17:32:11.560Z,14.43
2023-12-03T17:34:39.278Z,13.82
2023-12-03T17:37:07.339Z,13.40
2023-12-03T17:39:37.612Z,13.65
2023-12-03T17:42:05.780Z,14.32
2023-12-03T17:44:33.743Z,13.45
2023-12-03T17:47:01.685Z,14.90
2023-12-03T17:49:29.207Z,15.05
2023-12-03T17:51:58.170Z,15.07
2023-12-03T17:54:26.792Z,14.25
2023-12-03T17:56:54.752Z,14.73
2023-12-03T17:59:22.809Z,16.00
2023-12-03T18:01:50.516Z,14.98
2023-12-03T18:04:18.419Z,16.90
2023-12-03T18:06:47.781Z,16.15
2023-12-03T18:09:16.561Z,16.92
2023-12-03T18:11:44.989Z,14.60
2023-12-03T18:14:13.115Z,15.32
2023-12-03T18:16:45.020Z,15.77
2023-12-03T18:19:12.879Z,15.93
2023-12-03T18:21:40.949Z,22.30
2023-12-03T18:24:09.471Z,17.58
2023-12-03T18:26:43.233Z,17.48
2023-12-03T18:29:11.994Z,16.35
2023-12-03T18:31:41.573Z,16.23
2023-12-03T18:34:09.317Z,15.48
2023-12-03T18:36:37.159Z,14.90
2023-12-03T18:39:05.134Z,15.07
2023-12-03T18:41:32.712Z,15.82
2023-12-03T18:44:00.889Z,15.05
2023-12-03T18:46:28.523Z,15.35
2023-12-03T18:48:56.635Z,14.40
2023-12-03T18:51:24.362Z,14.27
2023-12-03T18:53:52.457Z,14.63
2023-12-03T18:56:20.201Z,14.90
2023-12-03T18:58:49.047Z,15.13
2023-12-03T19:01:17.462Z,14.68
2023-12-03T19:03:46.016Z,14.68
2023-12-03T19:06:14.387Z,14.50
2023-12-03T19:08:42.314Z,15.13
2023-12-03T19:11:09.994Z,14.20
2023-12-03T19:13:41.246Z,14.65
2023-12-03T19:16:10.722Z,14.18
2023-12-03T19:18:42.254Z,14.23
2023-12-03T19:21:09.993Z,15.73
2023-12-03T19:23:39.058Z,15.32
2023-12-03T19:26:07.026Z,13.63
2023-12-03T19:28:34.541Z,15.50
2023-12-03T19:31:04.783Z,13.90
2023-12-03T19:33:35.571Z,14.40
2023-12-03T19:36:03.336Z,14.13
2023-12-03T19:38:31.888Z,13.70
2023-12-03T19:41:02.877Z,13.68
2023-12-03T19:43:31.763Z,13.60
2023-12-03T19:45:59.850Z,13.35
2023-12-03T19:48:34.068Z,12.65
2023-12-03T19:51:02.231Z,14.32
2023-12-03T19:53:35.446Z,12.98
2023-12-03T19:56:03.514Z,13.65
2023-12-03T19:58:36.039Z,14.35
2023-12-03T20:01:04.020Z,13.68
2023-12-03T20:03:39.189Z,12.90
2023-12-03T20:06:08.368Z,14.15
2023-12-03T20:08:36.228Z,13.13
2023-12-03T20:11:05.481Z,12.88
2023-12-03T20:13:35.992Z,12.98
2023-12-03T20:16:04.982Z,13.00
2023-12-03T20:18:32.884Z,13.23
2023-12-03T20:21:01.135Z,12.90
2023-12-03T20:23:28.767Z,13.63
2023-12-03T20:26:09.656Z,14.23
2023-12-03T20:28:38.731Z,14.60
2023-12-03T20:31:11.285Z,14.57
2023-12-03T20:33:40.312Z,14.02
2023-12-03T20:36:09.964Z,14.00
2023-12-03T20:38:37.997Z,14.73
2023-12-03T20:41:17.003Z,14.02
2023-12-03T20:43:44.960Z,14.10
2023-12-03T20:46:14.282Z,13.43
2023-12-03T20:48:42.296Z,14.57
2023-12-03T20:51:11.149Z,14.25
2023-12-03T20:53:41.074Z,13.65
2023-12-03T20:56:10.397Z,14.10
2023-12-03T20:58:39.022Z,13.48
2023-12-03T21:01:07.042Z,14.50
2023-12-03T21:03:34.695Z,13.85
2023-12-03T21:06:03.208Z,14.85
2023-12-03T21:08:31.054Z,14.30
2023-12-03T21:10:59.450Z,14.57
2023-12-03T21:13:27.530Z,16.48
2023-12-03T21:15:55.175Z,15.55
2023-12-03T21:18:23.039Z,14.60
2023-12-03T21:20:50.658Z,15.55
2023-12-03T21:23:18.982Z,15.35
2023-12-03T21:25:46.666Z,15.65
2023-12-03T21:28:14.630Z,15.65
2023-12-03T21:30:42.364Z,15.75
2023-12-03T21:33:11.473Z,16.13
2023-12-03T21:35:39.572Z,16.20
2023-12-03T21:38:08.902Z,15.57
2023-12-03T21:40:38.337Z,14.82
2023-12-03T21:43:06.569Z,15.60
2023-12-03T21:45:34.918Z,15.82
2023-12-03T21:48:02.577Z,14.65
2023-12-03T21:50:31.022Z,16.25
2023-12-03T21:52:58.630Z,16.00
2023-12-03T21:55:26.279Z,16.13
2023-12-03T21:57:54.325Z,18.73
2023-12-03T22:00:24.364Z,18.15
2023-12-03T22:02:53.234Z,15.98
2023-12-03T22:05:20.908Z,16.98
2023-12-03T22:07:50.449Z,16.35
2023-12-03T22:10:17.992Z,17.30
2023-12-03T22:12:45.695Z,20.52
2023-12-03T22:15:13.403Z,20.67
2023-12-03T22:17:40.897Z,17.83
2023-12-03T22:20:08.923Z,18.77
2023-12-03T22:22:38.747Z,17.13
2023-12-03T22:25:07.627Z,17.33
2023-12-03T22:27:35.707Z,16.52
2023-12-03T22:30:11.288Z,17.20
2023-12-03T22:32:44.297Z,17.08
2023-12-03T22:35:12.117Z,17.98
2023-12-03T22:37:39.860Z,18.40
2023-12-03T22:40:07.988Z,18.48
2023-12-03T22:42:35.892Z,19.15
2023-12-03T22:45:05.016Z,19.42
2023-12-03T22:47:33.818Z,20.60
2023-12-03T22:50:02.341Z,21.50
2023-12-03T22:52:30.184Z,21.40
2023-12-03T22:54:58.519Z,22.02
2023-12-03T22:57:26.149Z,21.95
2023-12-03T22:59:54.044Z,21.05
2023-12-03T23:02:21.747Z,21.27
2023-12-03T23:04:49.446Z,23.40
2023-12-03T23:07:17.243Z,22.15
2023-12-03T23:09:45.152Z,23.40
2023-12-03T23:12:12.706Z,23.65
2023-12-03T23:14:40.336Z,24.50
2023-12-03T23:17:07.949Z,23.48
2023-12-03T23:19:35.783Z,23.10
2023-12-03T23:22:03.637Z,23.65
2023-12-03T23:24:31.352Z,22.67
2023-12-03T23:27:06.543Z,23.65
2023-12-03T23:29:38.636Z,22.05
2023-12-03T23:32:06.223Z,23.23
2023-12-03T23:34:37.243Z,23.98
2023-12-03T23:37:05.384Z,22.63
2023-12-03T23:39:33.937Z,23.25
2023-12-03T23:42:01.870Z,23.02
2023-12-03T23:44:29.328Z,22.98
2023-12-03T23:46:57.589Z,22.67
2023-12-03T23:49:25.590Z,23.67
2023-12-03T23:51:53.251Z,24.27
2023-12-03T23:54:21.156Z,24.40
2023-12-03T23:56:49.464Z,24.15
2023-12-03T23:59:16.954Z,23.83
